createdAt,value
2023-04-21T00:02:22.080Z,30.93
2023-04-21T00:04:51.712Z,30.70
2023-04-21T00:07:20.325Z,28.43
2023-04-21T00:09:47.940Z,32.30
2023-04-21T00:12:15.613Z,30.00
2023-04-21T00:14:43.308Z,33.90
2023-04-21T00:17:10.945Z,31.60
2023-04-21T00:19:38.522Z,32.37
2023-04-21T00:22:12.061Z,30.90
2023-04-21T00:24:39.613Z,32.83
2023-04-21T00:27:07.206Z,31.17
2023-04-21T00:29:34.794Z,30.53
2023-04-21T00:32:03.792Z,30.87
2023-04-21T00:34:31.418Z,29.90
2023-04-21T00:36:58.981Z,32.60
2023-04-21T00:39:27.893Z,30.77
2023-04-21T00:41:55.672Z,34.77
2023-04-21T00:44:23.379Z,32.53
2023-04-21T00:46:50.973Z,31.80
2023-04-21T00:49:18.789Z,30.07
2023-04-21T00:51:46.775Z,35.03
2023-04-21T00:54:15.277Z,34.40
2023-04-21T00:56:44.388Z,37.77
2023-04-21T00:59:12.030Z,36.17
2023-04-21T01:01:40.147Z,37.83
2023-04-21T01:04:10.288Z,34.20
2023-04-21T01:06:38.166Z,38.57
2023-04-21T01:09:07.928Z,36.60
2023-04-21T01:11:36.256Z,38.20
2023-04-21T01:14:05.357Z,39.10
2023-04-21T01:16:33.714Z,42.27
2023-04-21T01:19:02.383Z,41.07
2023-04-21T01:21:31.991Z,41.50
2023-04-21T01:24:01.116Z,40.30
2023-04-21T01:26:28.642Z,40.00
2023-04-21T01:28:57.978Z,42.13
2023-04-21T01:31:27.355Z,39.07
2023-04-21T01:33:55.415Z,41.20
2023-04-21T01:36:23.441Z,40.20
2023-04-21T01:38:51.393Z,40.27
2023-04-21T01:41:20.809Z,38.40
2023-04-21T01:43:48.488Z,39.20
2023-04-21T01:46:16.237Z,38.37
2023-04-21T01:48:43.907Z,39.47
2023-04-21T01:51:11.558Z,43.40
2023-04-21T01:53:39.191Z,39.30
2023-04-21T01:56:07.444Z,39.97
2023-04-21T01:58:36.317Z,41.63
2023-04-21T02:01:04.085Z,38.63
2023-04-21T02:03:31.880Z,42.93
2023-04-21T02:05:59.547Z,43.63
2023-04-21T02:08:27.138Z,45.20
2023-04-21T02:10:54.871Z,42.83
2023-04-21T02:13:22.470Z,46.20
2023-04-21T02:15:59.564Z,47.00
2023-04-21T02:18:34.528Z,45.57
2023-04-21T02:21:02.926Z,48.43
2023-04-21T02:23:30.518Z,47.77
2023-04-21T02:25:58.089Z,47.20
2023-04-21T02:28:25.619Z,45.73
2023-04-21T02:30:54.543Z,52.40
2023-04-21T02:33:22.217Z,46.47
2023-04-21T02:35:49.828Z,45.83
2023-04-21T02:38:17.390Z,48.97
2023-04-21T02:40:44.916Z,46.07
2023-04-21T02:43:12.694Z,48.23
2023-04-21T02:45:40.566Z,49.53
2023-04-21T02:48:09.686Z,50.03
2023-04-21T02:50:38.043Z,45.70
2023-04-21T02:53:05.696Z,45.60
2023-04-21T02:55:33.336Z,46.37
2023-04-21T02:58:00.846Z,47.60
2023-04-21T03:00:28.441Z,47.33
2023-04-21T03:02:56.302Z,49.20
2023-04-21T03:05:25.331Z,50.20
2023-04-21T03:07:52.895Z,52.40
2023-04-21T03:10:20.477Z,46.90
2023-04-21T03:12:48.255Z,46.23
2023-04-21T03:15:16.844Z,52.03
2023-04-21T03:17:44.436Z,49.03
2023-04-21T03:20:12.724Z,45.40
2023-04-21T03:22:41.615Z,49.03
2023-04-21T03:25:09.171Z,44.73
2023-04-21T03:27:37.425Z,57.73
2023-04-21T03:30:06.676Z,52.27
2023-04-21T03:32:34.335Z,49.83
2023-04-21T03:35:01.905Z,57.40
2023-04-21T03:37:29.482Z,67.63
2023-04-21T03:39:58.548Z,53.60
2023-04-21T03:42:26.275Z,75.63
2023-04-21T03:44:53.854Z,137.23
2023-04-21T03:47:21.416Z,135.97
2023-04-21T03:49:48.940Z,130.57
2023-04-21T03:52:16.574Z,207.50
2023-04-21T03:54:44.088Z,184.53
2023-04-21T03:57:12.994Z,407.67
2023-04-21T03:59:40.573Z,253.60
2023-04-21T04:02:08.283Z,228.77
2023-04-21T04:04:36.633Z,304.03
2023-04-21T04:07:04.933Z,120.13
2023-04-21T04:09:33.328Z,180.07
2023-04-21T04:12:02.792Z,292.70
2023-04-21T04:14:31.712Z,366.10
2023-04-21T04:16:59.848Z,252.30
2023-04-21T04:19:31.423Z,357.00
2023-04-21T04:21:59.833Z,458.57
2023-04-21T04:24:27.656Z,403.73
2023-04-21T04:26:58.168Z,583.83
2023-04-21T04:29:26.978Z,584.67
2023-04-21T04:31:56.230Z,675.60
2023-04-21T04:34:24.163Z,585.13
2023-04-21T04:36:51.841Z,575.53
2023-04-21T04:39:19.651Z,404.70
2023-04-21T04:41:48.597Z,590.07
2023-04-21T04:44:18.083Z,651.90
2023-04-21T04:46:46.417Z,579.33
2023-04-21T04:49:15.453Z,410.13
2023-04-21T04:51:43.051Z,623.10
2023-04-21T04:54:10.654Z,390.63
2023-04-21T04:56:38.307Z,562.43
2023-04-21T04:59:06.684Z,573.53
2023-04-21T05:01:34.286Z,391.93
2023-04-21T05:04:02.097Z,528.40
2023-04-21T05:06:32.156Z,636.27
2023-04-21T05:08:59.784Z,721.20
2023-04-21T05:11:27.379Z,546.53
2023-04-21T05:13:55.071Z,469.20
2023-04-21T05:16:22.738Z,488.83
2023-04-21T05:18:54.003Z,481.00
2023-04-21T05:21:27.483Z,557.23
2023-04-21T05:23:57.187Z,709.50
2023-04-21T05:26:25.650Z,697.23
2023-04-21T05:28:53.221Z,538.60
2023-04-21T05:31:20.888Z,588.47
2023-04-21T05:33:48.428Z,607.03
2023-04-21T05:36:16.021Z,537.63
2023-04-21T05:38:43.656Z,455.13
2023-04-21T05:41:12.656Z,528.90
2023-04-21T05:43:40.209Z,423.67
2023-04-21T05:46:10.246Z,457.20
2023-04-21T05:48:38.060Z,1023.63
2023-04-21T05:51:12.385Z,733.90
2023-04-21T05:53:40.055Z,683.83
2023-04-21T05:56:09.707Z,433.97
2023-04-21T05:58:39.108Z,324.90
2023-04-21T06:01:07.306Z,598.20
2023-04-21T06:03:35.083Z,406.40
2023-04-21T06:06:03.852Z,308.37
2023-04-21T06:08:31.512Z,290.00
2023-04-21T06:10:59.202Z,125.87
2023-04-21T06:13:27.769Z,219.27
2023-04-21T06:15:56.856Z,569.20
2023-04-21T06:18:25.086Z,244.70
2023-04-21T06:20:52.789Z,87.73
2023-04-21T06:23:20.548Z,247.13
2023-04-21T06:25:48.148Z,307.90
2023-04-21T06:28:15.681Z,291.10
2023-04-21T06:30:44.839Z,149.13
2023-04-21T06:33:13.685Z,409.70
2023-04-21T06:35:41.314Z,205.00
2023-04-21T06:38:09.782Z,138.87
2023-04-21T06:40:37.469Z,108.33
2023-04-21T06:43:05.142Z,126.97
2023-04-21T06:45:32.730Z,249.47
2023-04-21T06:48:00.352Z,111.30
2023-04-21T06:50:29.388Z,107.30
2023-04-21T06:52:56.973Z,78.50
2023-04-21T06:55:24.675Z,276.30
2023-04-21T06:57:52.356Z,145.17
2023-04-21T07:00:20.141Z,70.27
2023-04-21T07:02:47.928Z,58.20
2023-04-21T07:05:15.677Z,57.37
2023-04-21T07:07:44.591Z,78.83
2023-04-21T07:10:12.489Z,69.73
2023-04-21T07:12:40.138Z,56.33
2023-04-21T07:15:09.472Z,56.13
2023-04-21T07:17:37.100Z,58.20
2023-04-21T07:20:05.324Z,57.90
2023-04-21T07:22:34.521Z,50.97
2023-04-21T07:27:34.074Z,50.07
2023-04-21T07:30:01.746Z,48.23
2023-04-21T07:32:29.325Z,49.43
2023-04-21T07:34:56.900Z,49.67
2023-04-21T07:37:24.937Z,46.90
2023-04-21T07:39:52.681Z,45.60
2023-04-21T07:42:22.421Z,46.80
2023-04-21T07:44:50.304Z,43.63
2023-04-21T07:47:17.915Z,44.00
2023-04-21T07:49:45.628Z,38.60
2023-04-21T07:52:13.188Z,36.20
2023-04-21T07:54:40.831Z,36.17
2023-04-21T07:57:08.445Z,33.43
2023-04-21T07:59:37.331Z,36.73
2023-04-21T08:02:05.018Z,53.53
2023-04-21T08:04:32.849Z,33.33
2023-04-21T08:07:00.840Z,31.50
2023-04-21T08:09:28.599Z,32.63
2023-04-21T08:11:57.170Z,30.10
2023-04-21T08:14:26.767Z,33.33
2023-04-21T08:16:57.174Z,30.03
2023-04-21T08:19:25.159Z,30.67
2023-04-21T08:21:52.955Z,26.40
2023-04-21T08:24:20.985Z,24.20
2023-04-21T08:26:48.727Z,29.90
2023-04-21T08:29:16.584Z,22.80
2023-04-21T08:31:44.232Z,23.90
2023-04-21T08:34:13.601Z,21.13
2023-04-21T08:36:41.603Z,20.10
2023-04-21T08:39:09.388Z,19.43
2023-04-21T08:41:40.095Z,20.03
2023-04-21T08:44:07.683Z,20.60
2023-04-21T08:46:36.273Z,22.27
2023-04-21T08:49:04.145Z,24.03
2023-04-21T08:51:33.840Z,21.50
2023-04-21T08:54:01.457Z,21.80
2023-04-21T08:56:29.067Z,21.33
2023-04-21T08:58:57.624Z,22.07
2023-04-21T09:01:25.283Z,22.40
2023-04-21T09:03:53.154Z,22.10
2023-04-21T09:06:21.386Z,23.70
2023-04-21T09:08:56.536Z,21.53
2023-04-21T09:11:24.404Z,21.60
2023-04-21T09:13:52.877Z,22.03
2023-04-21T09:16:22.661Z,16.97
2023-04-21T09:18:51.464Z,19.13
2023-04-21T09:21:20.178Z,18.83
2023-04-21T09:23:51.655Z,15.83
2023-04-21T09:26:22.743Z,13.30
2023-04-21T09:28:52.151Z,12.67
2023-04-21T09:31:21.038Z,11.47
2023-04-21T09:36:21.914Z,8.90
2023-04-21T09:38:57.590Z,12.10
2023-04-21T09:41:40.884Z,10.70
2023-04-21T09:44:08.464Z,9.43
2023-04-21T09:46:37.657Z,11.10
2023-04-21T09:49:07.071Z,12.63
2023-04-21T09:54:28.501Z,11.63
2023-04-21T09:57:01.720Z,12.10
2023-04-21T09:59:31.377Z,14.47
2023-04-21T10:01:59.413Z,15.13
2023-04-21T10:04:28.897Z,13.93
2023-04-21T10:06:57.249Z,12.73
2023-04-21T10:09:27.040Z,10.53
2023-04-21T10:11:55.554Z,11.20
2023-04-21T10:14:26.174Z,11.67
2023-04-21T10:16:57.893Z,11.87
2023-04-21T10:19:26.419Z,12.03
2023-04-21T10:21:57.198Z,11.50
2023-04-21T10:24:24.881Z,12.13
2023-04-21T10:26:54.821Z,13.90
2023-04-21T10:29:43.765Z,15.20
2023-04-21T10:32:32.825Z,16.13
2023-04-21T10:35:00.652Z,15.50
2023-04-21T10:37:32.450Z,14.40
2023-04-21T10:40:00.205Z,17.07
2023-04-21T10:42:31.139Z,14.07
2023-04-21T10:45:18.077Z,15.87
2023-04-21T10:47:48.901Z,12.87
2023-04-21T10:50:22.721Z,11.70
2023-04-21T10:52:56.258Z,11.27
2023-04-21T10:55:27.460Z,12.87
2023-04-21T10:57:55.055Z,11.50
2023-04-21T11:00:25.373Z,10.97
2023-04-21T11:03:00.930Z,11.20
2023-04-21T11:05:34.559Z,11.57
2023-04-21T11:08:11.195Z,12.90
2023-04-21T11:10:50.853Z,12.10
2023-04-21T11:13:21.858Z,10.60
2023-04-21T11:16:01.504Z,11.37
2023-04-21T11:18:39.817Z,12.23
2023-04-21T11:21:17.811Z,12.27
2023-04-21T11:23:52.994Z,11.27
2023-04-21T11:26:25.922Z,9.57
2023-04-21T11:28:53.518Z,9.77
2023-04-21T11:31:22.490Z,12.27
2023-04-21T11:33:51.221Z,10.10
2023-04-21T11:36:22.512Z,7.90
2023-04-21T11:38:50.285Z,11.33
2023-04-21T11:41:22.160Z,11.97
2023-04-21T11:43:50.080Z,13.13
2023-04-21T11:46:18.884Z,11.40
2023-04-21T11:48:47.860Z,10.43
2023-04-21T11:51:16.621Z,11.57
2023-04-21T11:53:44.301Z,11.53
2023-04-21T11:56:12.747Z,10.03
2023-04-21T11:58:40.557Z,12.13
2023-04-21T12:01:11.058Z,13.60
2023-04-21T12:03:38.826Z,13.93
2023-04-21T12:06:08.403Z,12.93
2023-04-21T12:08:36.130Z,14.03
2023-04-21T12:11:03.884Z,12.30
2023-04-21T12:13:32.794Z,11.67
2023-04-21T12:16:03.872Z,12.10
2023-04-21T12:18:34.892Z,13.10
2023-04-21T12:21:04.217Z,13.93
2023-04-21T12:23:33.153Z,13.20
2023-04-21T12:26:01.362Z,13.90
2023-04-21T12:28:31.176Z,13.47
2023-04-21T12:30:58.811Z,13.77
2023-04-21T12:33:26.806Z,14.70
2023-04-21T12:35:54.498Z,14.07
2023-04-21T12:38:22.163Z,14.70
2023-04-21T12:40:51.054Z,15.77
2023-04-21T12:43:18.594Z,22.93
2023-04-21T12:45:46.366Z,12.03
2023-04-21T12:48:13.952Z,11.97
2023-04-21T12:50:41.527Z,12.53
2023-04-21T12:53:09.112Z,13.20
2023-04-21T12:55:37.202Z,11.83
2023-04-21T12:58:06.061Z,13.23
2023-04-21T13:00:35.843Z,11.07
2023-04-21T13:03:04.426Z,11.83
2023-04-21T13:05:34.933Z,10.77
2023-04-21T13:08:02.494Z,11.83
2023-04-21T13:10:30.183Z,11.10
2023-04-21T13:12:57.767Z,12.83
2023-04-21T13:15:26.644Z,12.80
2023-04-21T13:17:54.346Z,12.33
2023-04-21T13:20:22.414Z,11.27
2023-04-21T13:22:50.059Z,10.57
2023-04-21T13:25:17.841Z,10.73
2023-04-21T13:27:46.766Z,10.63
2023-04-21T13:30:15.750Z,10.90
2023-04-21T13:32:44.753Z,11.73
2023-04-21T13:35:12.598Z,13.00
2023-04-21T13:37:41.256Z,13.47
2023-04-21T13:40:10.799Z,14.43
2023-04-21T13:42:39.322Z,14.03
2023-04-21T13:45:08.012Z,14.83
2023-04-21T13:47:36.091Z,14.67
2023-04-21T13:50:05.725Z,13.80
2023-04-21T13:52:34.880Z,13.00
2023-04-21T13:55:02.759Z,11.80
2023-04-21T13:57:30.583Z,12.80
2023-04-21T13:59:58.220Z,12.40
2023-04-21T14:02:26.146Z,13.60
2023-04-21T14:04:54.532Z,15.27
2023-04-21T14:07:26.162Z,14.27
2023-04-21T14:09:54.363Z,13.53
2023-04-21T14:12:22.128Z,12.53
2023-04-21T14:14:49.992Z,12.80
2023-04-21T14:17:17.826Z,12.13
2023-04-21T14:19:45.428Z,11.63
2023-04-21T14:22:13.342Z,12.50
2023-04-21T14:24:42.484Z,11.83
2023-04-21T14:27:10.722Z,12.60
2023-04-21T14:29:38.359Z,11.93
2023-04-21T14:32:06.119Z,13.07
2023-04-21T14:34:33.827Z,12.17
2023-04-21T14:37:01.629Z,12.43
2023-04-21T14:39:29.245Z,13.17
2023-04-21T14:41:58.218Z,12.40
2023-04-21T14:44:25.842Z,12.53
2023-04-21T14:47:05.678Z,12.13
2023-04-21T14:49:37.394Z,11.33
2023-04-21T14:52:05.308Z,11.40
2023-04-21T14:54:32.874Z,11.30
2023-04-21T14:57:17.884Z,10.50
2023-04-21T14:59:47.151Z,9.43
2023-04-21T15:02:15.129Z,11.70
2023-04-21T15:04:42.914Z,10.13
2023-04-21T15:07:10.544Z,11.00
2023-04-21T15:09:39.076Z,10.33
2023-04-21T15:12:08.200Z,14.60
2023-04-21T15:14:40.246Z,10.97
2023-04-21T15:17:08.524Z,10.03
2023-04-21T15:19:36.419Z,9.10
2023-04-21T15:22:04.866Z,10.30
2023-04-21T15:24:32.570Z,9.73
2023-04-21T15:27:01.303Z,9.40
2023-04-21T15:29:30.309Z,10.03
2023-04-21T15:31:57.992Z,8.93
2023-04-21T15:34:25.931Z,8.07
2023-04-21T15:36:54.525Z,9.33
2023-04-21T15:39:22.194Z,8.40
2023-04-21T15:41:49.799Z,9.97
2023-04-21T15:44:17.297Z,8.07
2023-04-21T15:46:46.276Z,9.47
2023-04-21T15:49:13.984Z,8.93
2023-04-21T15:51:42.053Z,9.50
2023-04-21T15:54:10.360Z,8.13
2023-04-21T15:56:38.063Z,8.07
2023-04-21T15:59:05.993Z,9.43
2023-04-21T16:01:33.955Z,9.03
2023-04-21T16:04:03.489Z,9.23
2023-04-21T16:06:31.550Z,8.27
2023-04-21T16:08:59.178Z,8.30
2023-04-21T16:11:29.084Z,8.30
2023-04-21T16:13:57.122Z,7.60
2023-04-21T16:16:24.736Z,8.90
2023-04-21T16:18:52.378Z,8.70
2023-04-21T16:21:21.608Z,9.43
2023-04-21T16:23:49.302Z,8.43
2023-04-21T16:26:16.898Z,8.83
2023-04-21T16:28:44.542Z,8.90
2023-04-21T16:31:12.673Z,8.50
2023-04-21T16:33:40.578Z,9.00
2023-04-21T16:36:08.388Z,8.67
2023-04-21T16:38:37.426Z,9.30
2023-04-21T16:41:04.995Z,8.50
2023-04-21T16:43:32.641Z,8.77
2023-04-21T16:46:00.333Z,8.20
2023-04-21T16:48:28.070Z,8.70
2023-04-21T16:50:55.786Z,8.50
2023-04-21T16:53:25.363Z,8.70
2023-04-21T16:55:54.412Z,7.30
2023-04-21T16:58:24.236Z,8.30
2023-04-21T17:00:52.014Z,8.60
2023-04-21T17:03:19.838Z,11.10
2023-04-21T17:05:47.578Z,8.13
2023-04-21T17:08:15.326Z,8.77
2023-04-21T17:10:42.894Z,8.67
2023-04-21T17:13:11.846Z,7.53
2023-04-21T17:15:39.659Z,6.90
2023-04-21T17:18:07.363Z,6.30
2023-04-21T17:20:35.076Z,3.20
2023-04-21T17:23:02.652Z,2.13
2023-04-21T17:25:30.259Z,3.37
2023-04-21T17:27:57.802Z,3.67
2023-04-21T17:30:27.036Z,4.50
2023-04-21T17:33:03.907Z,2.60
2023-04-21T17:35:37.932Z,5.20
2023-04-21T17:38:06.658Z,5.70
2023-04-21T17:40:34.320Z,2.57
2023-04-21T17:43:01.927Z,1.90
2023-04-21T17:45:31.187Z,2.13
2023-04-21T17:47:58.879Z,3.30
2023-04-21T17:50:27.625Z,3.30
2023-04-21T17:52:55.312Z,3.60
2023-04-21T17:55:23.321Z,3.40
2023-04-21T17:57:51.055Z,2.60
2023-04-21T18:00:19.980Z,3.33
2023-04-21T18:02:49.045Z,2.53
2023-04-21T18:05:17.114Z,3.50
2023-04-21T18:07:44.851Z,2.20
2023-04-21T18:10:12.764Z,2.93
2023-04-21T18:12:40.695Z,2.83
2023-04-21T18:15:10.308Z,2.30
2023-04-21T18:17:38.145Z,2.83
2023-04-21T18:20:08.419Z,1.70
2023-04-21T18:22:36.040Z,2.27
2023-04-21T18:25:04.030Z,1.80
2023-04-21T18:27:31.599Z,2.60
2023-04-21T18:29:59.163Z,2.03
2023-04-21T18:32:26.813Z,2.90
2023-04-21T18:34:54.594Z,1.90
2023-04-21T18:37:23.628Z,3.63
2023-04-21T18:39:51.196Z,1.80
2023-04-21T18:42:18.827Z,3.50
2023-04-21T18:44:46.442Z,3.90
2023-04-21T18:47:15.361Z,4.93
2023-04-21T18:49:42.999Z,3.67
2023-04-21T18:52:10.585Z,2.57
2023-04-21T18:54:39.725Z,3.17
2023-04-21T18:57:08.504Z,3.73
2023-04-21T18:59:36.075Z,4.70
2023-04-21T19:02:05.986Z,5.63
2023-04-21T19:04:33.885Z,3.57
2023-04-21T19:07:01.866Z,2.80
2023-04-21T19:09:29.875Z,3.57
2023-04-21T19:11:58.836Z,3.70
2023-04-21T19:14:27.818Z,3.27
2023-04-21T19:16:55.550Z,3.60
2023-04-21T19:19:24.017Z,4.87
2023-04-21T19:21:51.558Z,3.60
2023-04-21T19:24:19.171Z,4.13
2023-04-21T19:26:46.881Z,4.27
2023-04-21T19:29:15.909Z,4.60
2023-04-21T19:31:43.526Z,4.40
2023-04-21T19:34:11.131Z,4.27
2023-04-21T19:36:38.770Z,4.87
2023-04-21T19:39:07.349Z,3.20
2023-04-21T19:41:34.927Z,3.63
2023-04-21T19:44:02.471Z,4.13
2023-04-21T19:46:32.075Z,4.00
2023-04-21T19:48:59.717Z,3.40
2023-04-21T19:51:27.875Z,3.43
2023-04-21T19:54:10.112Z,3.40
2023-04-21T19:56:38.747Z,3.93
2023-04-21T19:59:06.373Z,4.77
2023-04-21T20:01:35.593Z,4.07
2023-04-21T20:04:04.068Z,3.47
2023-04-21T20:06:32.032Z,4.03
2023-04-21T20:08:59.677Z,4.17
2023-04-21T20:11:29.185Z,4.60
2023-04-21T20:13:56.961Z,4.03
2023-04-21T20:16:26.228Z,7.57
2023-04-21T20:18:55.475Z,6.53
2023-04-21T20:21:23.204Z,8.47
2023-04-21T20:23:50.738Z,7.97
2023-04-21T20:26:18.455Z,7.57
2023-04-21T20:28:46.033Z,6.73
2023-04-21T20:31:13.689Z,5.13
2023-04-21T20:33:41.245Z,5.30
2023-04-21T20:36:11.764Z,6.33
2023-04-21T20:38:39.292Z,4.43
2023-04-21T20:41:07.097Z,6.17
2023-04-21T20:43:34.762Z,3.33
2023-04-21T20:46:03.306Z,3.93
2023-04-21T20:48:31.378Z,4.00
2023-04-21T20:50:58.945Z,4.27
2023-04-21T20:53:27.935Z,3.27
2023-04-21T20:55:55.698Z,3.67
2023-04-21T20:58:24.402Z,5.53
2023-04-21T21:00:52.187Z,6.13
2023-04-21T21:03:20.558Z,4.30
2023-04-21T21:05:48.654Z,3.90
2023-04-21T21:08:16.402Z,4.53
2023-04-21T21:10:45.411Z,3.90
2023-04-21T21:13:12.962Z,3.70
2023-04-21T21:15:40.551Z,6.03
2023-04-21T21:18:08.317Z,5.70
2023-04-21T21:20:36.094Z,4.33
2023-04-21T21:23:03.770Z,4.00
2023-04-21T21:25:31.339Z,3.63
2023-04-21T21:28:00.319Z,3.93
2023-04-21T21:30:27.962Z,6.07
2023-04-21T21:32:55.916Z,3.27
2023-04-21T21:35:23.701Z,3.83
2023-04-21T21:37:51.314Z,3.27
2023-04-21T21:40:19.030Z,5.53
2023-04-21T21:42:46.576Z,4.43
2023-04-21T21:45:15.756Z,5.37
2023-04-21T21:47:45.634Z,4.27
2023-04-21T21:50:13.700Z,3.50
2023-04-21T21:52:41.554Z,3.60
2023-04-21T21:55:10.135Z,3.63
2023-04-21T21:57:37.983Z,5.83
2023-04-21T22:00:08.084Z,4.23
2023-04-21T22:02:37.415Z,3.33
2023-04-21T22:05:05.686Z,4.70
2023-04-21T22:07:33.289Z,4.03
2023-04-21T22:10:01.166Z,4.00
2023-04-21T22:12:28.807Z,4.60
2023-04-21T22:14:56.554Z,5.83
2023-04-21T22:17:24.781Z,5.57
2023-04-21T22:19:53.736Z,4.70
2023-04-21T22:22:21.506Z,3.53
2023-04-21T22:24:49.125Z,4.57
2023-04-21T22:27:16.709Z,4.10
2023-04-21T22:29:44.391Z,4.07
2023-04-21T22:32:12.062Z,3.53
2023-04-21T22:34:39.818Z,4.17
2023-04-21T22:37:08.771Z,3.90
2023-04-21T22:39:38.027Z,4.30
2023-04-21T22:42:06.836Z,4.60
2023-04-21T22:44:34.462Z,4.47
2023-04-21T22:47:02.095Z,4.17
2023-04-21T22:49:29.835Z,4.23
2023-04-21T22:51:57.482Z,5.17
2023-04-21T22:54:26.449Z,4.97
2023-04-21T22:56:54.199Z,4.20
2023-04-21T22:59:22.031Z,5.03
2023-04-21T23:01:49.952Z,5.57
2023-04-21T23:04:17.915Z,4.80
2023-04-21T23:06:45.595Z,4.87
2023-04-21T23:09:13.407Z,4.80
2023-04-21T23:11:45.205Z,4.67
2023-04-21T23:14:12.783Z,3.70
2023-04-21T23:16:40.640Z,5.27
2023-04-21T23:19:08.615Z,6.07
2023-04-21T23:21:36.389Z,5.40
2023-04-21T23:24:04.085Z,6.27
2023-04-21T23:26:31.663Z,4.57
2023-04-21T23:29:00.708Z,5.80
2023-04-21T23:31:28.650Z,4.93
2023-04-21T23:33:56.590Z,6.43
2023-04-21T23:36:24.238Z,5.00
2023-04-21T23:38:51.890Z,4.57
2023-04-21T23:41:19.519Z,8.50
2023-04-21T23:43:47.338Z,5.73
2023-04-21T23:46:16.419Z,6.57
2023-04-21T23:48:44.173Z,6.63
2023-04-21T23:51:11.845Z,4.83
2023-04-21T23:53:39.491Z,5.00
2023-04-21T23:56:07.621Z,5.20
2023-04-21T23:58:35.316Z,5.07
